sensor_id;sensor_type;location;lat;lon;timestamp;pressure;altitude;pressure_sealevel;temperature;humidity
56600;BME280;51832;48.152;11.530;2023-02-21T00:00:31;95934.66;;;11.75;44.00
56600;BME280;51832;48.152;11.530;2023-02-21T00:05:50;95933.03;;;11.49;44.90
56600;BME280;51832;48.152;11.530;2023-02-21T00:11:09;95926.00;;;11.43;45.36
56600;BME280;51832;48.152;11.530;2023-02-21T00:16:28;95924.53;;;11.72;44.84
56600;BME280;51832;48.152;11.530;2023-02-21T00:21:47;95920.16;;;11.34;45.99
56600;BME280;51832;48.152;11.530;2023-02-21T00:27:05;95915.28;;;11.38;46.13
56600;BME280;51832;48.152;11.530;2023-02-21T00:32:24;95917.09;;;11.62;45.46
56600;BME280;51832;48.152;11.530;2023-02-21T00:37:44;95918.34;;;11.60;45.50
56600;BME280;51832;48.152;11.530;2023-02-21T00:43:02;95915.88;;;11.65;45.38
56600;BME280;51832;48.152;11.530;2023-02-21T00:48:22;95908.28;;;11.75;45.62
56600;BME280;51832;48.152;11.530;2023-02-21T00:53:41;95896.59;;;11.64;45.65
56600;BME280;51832;48.152;11.530;2023-02-21T00:59:00;95911.19;;;11.67;45.85
56600;BME280;51832;48.152;11.530;2023-02-21T01:04:19;95912.00;;;11.67;46.24
56600;BME280;51832;48.152;11.530;2023-02-21T01:09:38;95904.22;;;11.54;46.62
56600;BME280;51832;48.152;11.530;2023-02-21T01:14:57;95889.63;;;11.52;46.51
56600;BME280;51832;48.152;11.530;2023-02-21T01:20:16;95906.97;;;11.41;47.24
56600;BME280;51832;48.152;11.530;2023-02-21T01:25:35;95888.69;;;11.46;47.09
56600;BME280;51832;48.152;11.530;2023-02-21T01:30:54;95882.75;;;11.26;48.32
56600;BME280;51832;48.152;11.530;2023-02-21T01:36:12;95883.63;;;11.45;47.55
56600;BME280;51832;48.152;11.530;2023-02-21T01:41:31;95875.38;;;11.34;47.77
56600;BME280;51832;48.152;11.530;2023-02-21T01:46:50;95875.44;;;11.28;48.25
56600;BME280;51832;48.152;11.530;2023-02-21T01:52:09;95875.69;;;10.95;48.98
56600;BME280;51832;48.152;11.530;2023-02-21T01:57:29;95878.59;;;11.12;48.82
56600;BME280;51832;48.152;11.530;2023-02-21T02:02:52;95863.09;;;11.03;48.95
56600;BME280;51832;48.152;11.530;2023-02-21T02:08:13;95855.31;;;11.09;49.04
56600;BME280;51832;48.152;11.530;2023-02-21T02:30:10;95851.78;;;10.96;49.86
56600;BME280;51832;48.152;11.530;2023-02-21T02:35:38;95857.66;;;10.98;49.58
56600;BME280;51832;48.152;11.530;2023-02-21T02:40:57;95847.72;;;11.00;49.46
56600;BME280;51832;48.152;11.530;2023-02-21T02:46:10;95842.88;;;10.97;49.62
56600;BME280;51832;48.152;11.530;2023-02-21T02:51:14;95838.69;;;10.90;49.77
56600;BME280;51832;48.152;11.530;2023-02-21T02:56:15;95836.75;;;11.03;49.57
56600;BME280;51832;48.152;11.530;2023-02-21T03:01:39;95834.38;;;10.95;49.56
56600;BME280;51832;48.152;11.530;2023-02-21T03:12:05;95832.34;;;10.97;49.15
56600;BME280;51832;48.152;11.530;2023-02-21T03:17:11;95833.19;;;10.91;49.86
56600;BME280;51832;48.152;11.530;2023-02-21T03:22:19;95834.75;;;10.99;49.23
56600;BME280;51832;48.152;11.530;2023-02-21T03:27:22;95839.84;;;10.94;49.88
56600;BME280;51832;48.152;11.530;2023-02-21T03:32:27;95837.16;;;10.76;50.34
56600;BME280;51832;48.152;11.530;2023-02-21T03:37:35;95842.25;;;10.71;50.11
56600;BME280;51832;48.152;11.530;2023-02-21T03:42:36;95841.94;;;10.54;51.07
56600;BME280;51832;48.152;11.530;2023-02-21T03:47:37;95835.06;;;10.53;51.01
56600;BME280;51832;48.152;11.530;2023-02-21T03:52:38;95841.06;;;10.35;51.45
56600;BME280;51832;48.152;11.530;2023-02-21T03:57:38;95826.69;;;10.31;51.92
56600;BME280;51832;48.152;11.530;2023-02-21T04:02:39;95835.00;;;10.28;52.12
56600;BME280;51832;48.152;11.530;2023-02-21T04:07:39;95836.25;;;10.12;52.68
56600;BME280;51832;48.152;11.530;2023-02-21T04:12:40;95836.44;;;10.17;52.76
56600;BME280;51832;48.152;11.530;2023-02-21T04:17:40;95840.94;;;10.04;53.12
56600;BME280;51832;48.152;11.530;2023-02-21T04:22:41;95842.97;;;10.02;53.85
56600;BME280;51832;48.152;11.530;2023-02-21T04:27:41;95842.38;;;9.99;53.70
56600;BME280;51832;48.152;11.530;2023-02-21T04:32:42;95833.53;;;9.87;53.67
56600;BME280;51832;48.152;11.530;2023-02-21T04:37:42;95823.91;;;10.13;52.92
56600;BME280;51832;48.152;11.530;2023-02-21T04:42:44;95826.47;;;9.81;54.31
56600;BME280;51832;48.152;11.530;2023-02-21T04:47:44;95829.31;;;9.80;54.58
56600;BME280;51832;48.152;11.530;2023-02-21T04:52:46;95829.31;;;9.73;54.92
56600;BME280;51832;48.152;11.530;2023-02-21T04:57:47;95815.97;;;9.81;53.86
56600;BME280;51832;48.152;11.530;2023-02-21T05:02:47;95810.03;;;9.41;55.37
56600;BME280;51832;48.152;11.530;2023-02-21T05:07:48;95819.41;;;9.75;54.79
56600;BME280;51832;48.152;11.530;2023-02-21T05:12:48;95814.00;;;9.70;54.29
56600;BME280;51832;48.152;11.530;2023-02-21T05:17:49;95807.66;;;9.84;54.36
56600;BME280;51832;48.152;11.530;2023-02-21T05:22:49;95798.88;;;9.46;54.78
56600;BME280;51832;48.152;11.530;2023-02-21T05:27:51;95800.22;;;9.75;53.96
56600;BME280;51832;48.152;11.530;2023-02-21T05:32:52;95789.66;;;9.88;64.59
56600;BME280;51832;48.152;11.530;2023-02-21T05:37:53;95799.78;;;11.35;60.65
56600;BME280;51832;48.152;11.530;2023-02-21T05:42:53;95790.66;;;11.56;58.16
56600;BME280;51832;48.152;11.530;2023-02-21T05:47:54;95786.38;;;11.98;54.68
56600;BME280;51832;48.152;11.530;2023-02-21T05:52:59;95787.97;;;11.99;48.73
56600;BME280;51832;48.152;11.530;2023-02-21T05:58:00;95787.88;;;10.83;49.54
56600;BME280;51832;48.152;11.530;2023-02-21T06:03:01;95794.75;;;9.83;52.30
56600;BME280;51832;48.152;11.530;2023-02-21T06:08:02;95794.59;;;9.58;53.44
56600;BME280;51832;48.152;11.530;2023-02-21T06:13:02;95798.63;;;9.60;53.07
56600;BME280;51832;48.152;11.530;2023-02-21T06:18:03;95790.03;;;9.40;53.10
56600;BME280;51832;48.152;11.530;2023-02-21T06:23:03;95787.97;;;9.49;52.49
56600;BME280;51832;48.152;11.530;2023-02-21T06:28:04;95803.75;;;9.36;53.16
56600;BME280;51832;48.152;11.530;2023-02-21T06:33:04;95795.47;;;9.39;53.00
56600;BME280;51832;48.152;11.530;2023-02-21T06:38:05;95808.97;;;9.55;51.33
56600;BME280;51832;48.152;11.530;2023-02-21T06:43:06;95810.22;;;10.04;50.56
56600;BME280;51832;48.152;11.530;2023-02-21T06:48:06;95809.16;;;10.12;50.94
56600;BME280;51832;48.152;11.530;2023-02-21T06:53:08;95819.63;;;10.63;49.27
56600;BME280;51832;48.152;11.530;2023-02-21T06:58:08;95833.41;;;10.65;48.88
56600;BME280;51832;48.152;11.530;2023-02-21T07:03:10;95836.25;;;10.88;47.91
56600;BME280;51832;48.152;11.530;2023-02-21T07:08:10;95842.63;;;10.43;49.20
56600;BME280;51832;48.152;11.530;2023-02-21T07:13:10;95833.91;;;10.42;49.23
56600;BME280;51832;48.152;11.530;2023-02-21T07:18:11;95842.88;;;10.35;49.35
56600;BME280;51832;48.152;11.530;2023-02-21T07:23:11;95842.13;;;10.59;49.49
56600;BME280;51832;48.152;11.530;2023-02-21T07:28:12;95838.78;;;11.26;47.61
56600;BME280;51832;48.152;11.530;2023-02-21T07:33:12;95845.25;;;11.49;46.52
56600;BME280;51832;48.152;11.530;2023-02-21T07:38:24;95840.56;;;11.94;45.68
56600;BME280;51832;48.152;11.530;2023-02-21T07:43:26;95850.22;;;12.18;44.62
56600;BME280;51832;48.152;11.530;2023-02-21T07:48:27;95849.94;;;12.08;44.57
56600;BME280;51832;48.152;11.530;2023-02-21T07:53:28;95857.50;;;11.86;44.83
56600;BME280;51832;48.152;11.530;2023-02-21T07:58:29;95858.66;;;11.90;45.77
56600;BME280;51832;48.152;11.530;2023-02-21T08:03:31;95860.19;;;11.80;45.11
56600;BME280;51832;48.152;11.530;2023-02-21T08:08:32;95850.78;;;12.38;43.97
56600;BME280;51832;48.152;11.530;2023-02-21T08:13:32;95860.38;;;12.51;43.88
56600;BME280;51832;48.152;11.530;2023-02-21T08:18:33;95859.00;;;12.60;43.16
56600;BME280;51832;48.152;11.530;2023-02-21T08:23:33;95861.78;;;12.95;42.09
56600;BME280;51832;48.152;11.530;2023-02-21T08:28:34;95864.13;;;12.85;42.38
56600;BME280;51832;48.152;11.530;2023-02-21T08:33:36;95866.25;;;13.48;41.46
56600;BME280;51832;48.152;11.530;2023-02-21T08:38:37;95870.31;;;13.09;41.82
56600;BME280;51832;48.152;11.530;2023-02-21T08:43:38;95873.00;;;13.32;41.48
56600;BME280;51832;48.152;11.530;2023-02-21T08:48:38;95868.53;;;13.44;41.52
56600;BME280;51832;48.152;11.530;2023-02-21T08:53:38;95863.91;;;13.98;40.07
56600;BME280;51832;48.152;11.530;2023-02-21T08:58:39;95869.19;;;13.98;40.20
56600;BME280;51832;48.152;11.530;2023-02-21T09:03:39;95872.25;;;14.42;39.19
56600;BME280;51832;48.152;11.530;2023-02-21T09:08:40;95861.53;;;13.62;40.16
56600;BME280;51832;48.152;11.530;2023-02-21T09:13:40;95863.09;;;14.09;39.26
56600;BME280;51832;48.152;11.530;2023-02-21T09:18:41;95867.13;;;14.00;39.23
56600;BME280;51832;48.152;11.530;2023-02-21T09:23:41;95861.88;;;13.88;39.95
56600;BME280;51832;48.152;11.530;2023-02-21T09:28:41;95857.41;;;14.29;38.15
56600;BME280;51832;48.152;11.530;2023-02-21T09:33:43;95861.16;;;14.85;36.93
56600;BME280;51832;48.152;11.530;2023-02-21T09:38:44;95864.88;;;14.72;36.24
56600;BME280;51832;48.152;11.530;2023-02-21T09:43:47;95869.13;;;15.02;35.90
56600;BME280;51832;48.152;11.530;2023-02-21T09:48:50;95867.34;;;15.07;35.99
56600;BME280;51832;48.152;11.530;2023-02-21T09:53:53;95861.50;;;15.39;35.78
56600;BME280;51832;48.152;11.530;2023-02-21T09:58:55;95847.28;;;15.28;36.19
56600;BME280;51832;48.152;11.530;2023-02-21T10:04:07;95850.56;;;15.52;36.19
56600;BME280;51832;48.152;11.530;2023-02-21T10:09:52;95846.47;;;15.78;35.66
56600;BME280;51832;48.152;11.530;2023-02-21T10:20:19;95845.66;;;15.10;36.40
56600;BME280;51832;48.152;11.530;2023-02-21T10:25:25;95850.34;;;15.70;35.60
56600;BME280;51832;48.152;11.530;2023-02-21T10:30:32;95846.56;;;16.05;35.23
56600;BME280;51832;48.152;11.530;2023-02-21T10:35:35;95855.31;;;16.05;35.92
56600;BME280;51832;48.152;11.530;2023-02-21T10:40:41;95856.63;;;16.46;36.02
56600;BME280;51832;48.152;11.530;2023-02-21T10:56:17;95850.47;;;16.89;33.01
56600;BME280;51832;48.152;11.530;2023-02-21T11:11:39;95831.53;;;16.81;33.73
56600;BME280;51832;48.152;11.530;2023-02-21T11:16:40;95831.59;;;17.18;33.42
56600;BME280;51832;48.152;11.530;2023-02-21T11:21:40;95815.56;;;17.45;32.04
56600;BME280;51832;48.152;11.530;2023-02-21T11:26:50;95804.88;;;17.71;31.76
56600;BME280;51832;48.152;11.530;2023-02-21T11:31:52;95796.34;;;17.69;31.33
56600;BME280;51832;48.152;11.530;2023-02-21T11:37:01;95780.84;;;18.19;30.60
56600;BME280;51832;48.152;11.530;2023-02-21T11:42:04;95777.97;;;18.35;30.54
56600;BME280;51832;48.152;11.530;2023-02-21T11:47:34;95765.50;;;18.56;29.99
56600;BME280;51832;48.152;11.530;2023-02-21T12:08:34;95749.03;;;19.15;28.84
56600;BME280;51832;48.152;11.530;2023-02-21T12:13:40;95741.00;;;19.35;28.65
56600;BME280;51832;48.152;11.530;2023-02-21T12:19:11;95733.78;;;19.56;28.34
56600;BME280;51832;48.152;11.530;2023-02-21T12:24:26;95728.16;;;19.63;27.96
56600;BME280;51832;48.152;11.530;2023-02-21T12:29:40;95724.47;;;19.28;28.61
56600;BME280;51832;48.152;11.530;2023-02-21T12:40:28;95706.81;;;19.68;28.52
56600;BME280;51832;48.152;11.530;2023-02-21T12:45:59;95690.44;;;20.39;27.83
56600;BME280;51832;48.152;11.530;2023-02-21T12:51:08;95690.47;;;20.29;28.01
56600;BME280;51832;48.152;11.530;2023-02-21T12:56:18;95691.00;;;20.36;27.83
56600;BME280;51832;48.152;11.530;2023-02-21T13:01:33;95688.34;;;20.36;28.04
56600;BME280;51832;48.152;11.530;2023-02-21T13:12:13;95654.75;;;21.21;27.14
56600;BME280;51832;48.152;11.530;2023-02-21T13:17:16;95649.28;;;21.55;26.80
56600;BME280;51832;48.152;11.530;2023-02-21T13:28:17;95637.31;;;21.48;26.96
56600;BME280;51832;48.152;11.530;2023-02-21T13:33:51;95642.22;;;21.64;26.46
56600;BME280;51832;48.152;11.530;2023-02-21T13:39:09;95628.09;;;22.02;26.32
56600;BME280;51832;48.152;11.530;2023-02-21T13:44:17;95612.81;;;22.40;25.82
56600;BME280;51832;48.152;11.530;2023-02-21T14:10:47;95585.38;;;23.08;25.05
56600;BME280;51832;48.152;11.530;2023-02-21T14:15:55;95575.63;;;23.66;24.30
56600;BME280;51832;48.152;11.530;2023-02-21T14:20:58;95570.47;;;24.95;23.47
56600;BME280;51832;48.152;11.530;2023-02-21T14:26:03;95560.34;;;27.13;20.92
56600;BME280;51832;48.152;11.530;2023-02-21T14:31:04;95564.50;;;29.18;18.70
56600;BME280;51832;48.152;11.530;2023-02-21T14:36:09;95556.84;;;31.05;16.24
56600;BME280;51832;48.152;11.530;2023-02-21T14:41:51;95556.78;;;32.34;15.38
56600;BME280;51832;48.152;11.530;2023-02-21T14:47:54;95547.88;;;34.50;13.76
56600;BME280;51832;48.152;11.530;2023-02-21T15:04:16;95526.34;;;39.77;11.24
56600;BME280;51832;48.152;11.530;2023-02-21T15:09:19;95520.50;;;39.68;9.41
56600;BME280;51832;48.152;11.530;2023-02-21T15:14:24;95509.50;;;40.05;9.60
56600;BME280;51832;48.152;11.530;2023-02-21T15:19:33;95507.50;;;39.72;9.79
56600;BME280;51832;48.152;11.530;2023-02-21T15:24:34;95504.88;;;39.99;9.00
56600;BME280;51832;48.152;11.530;2023-02-21T15:29:34;95504.63;;;40.20;8.80
56600;BME280;51832;48.152;11.530;2023-02-21T15:34:40;95495.25;;;40.14;8.92
56600;BME280;51832;48.152;11.530;2023-02-21T15:39:47;95484.91;;;40.86;8.57
56600;BME280;51832;48.152;11.530;2023-02-21T15:50:09;95473.94;;;39.39;9.57
56600;BME280;51832;48.152;11.530;2023-02-21T15:55:31;95468.06;;;38.86;9.52
56600;BME280;51832;48.152;11.530;2023-02-21T16:05:33;95472.44;;;37.60;10.59
56600;BME280;51832;48.152;11.530;2023-02-21T16:10:35;95460.69;;;37.81;10.31
56600;BME280;51832;48.152;11.530;2023-02-21T16:15:36;95462.66;;;36.74;10.93
56600;BME280;51832;48.152;11.530;2023-02-21T16:20:41;95460.41;;;35.89;11.46
56600;BME280;51832;48.152;11.530;2023-02-21T16:26:01;95458.16;;;33.88;12.90
56600;BME280;51832;48.152;11.530;2023-02-21T16:31:04;95464.88;;;32.93;13.60
56600;BME280;51832;48.152;11.530;2023-02-21T16:36:23;95460.69;;;30.78;15.51
56600;BME280;51832;48.152;11.530;2023-02-21T16:41:25;95455.22;;;29.02;17.18
56600;BME280;51832;48.152;11.530;2023-02-21T16:46:26;95448.88;;;27.24;19.29
56600;BME280;51832;48.152;11.530;2023-02-21T16:51:27;95457.06;;;26.69;20.05
56600;BME280;51832;48.152;11.530;2023-02-21T16:56:32;95455.03;;;25.68;20.89
56600;BME280;51832;48.152;11.530;2023-02-21T17:01:33;95448.28;;;25.13;22.00
56600;BME280;51832;48.152;11.530;2023-02-21T17:06:33;95454.28;;;24.71;22.53
56600;BME280;51832;48.152;11.530;2023-02-21T17:11:34;95465.75;;;24.23;23.50
56600;BME280;51832;48.152;11.530;2023-02-21T17:21:46;95463.22;;;23.60;24.46
56600;BME280;51832;48.152;11.530;2023-02-21T17:26:46;95471.66;;;23.03;25.47
56600;BME280;51832;48.152;11.530;2023-02-21T17:31:53;95468.34;;;23.34;25.25
56600;BME280;51832;48.152;11.530;2023-02-21T17:36:54;95472.66;;;23.08;25.42
56600;BME280;51832;48.152;11.530;2023-02-21T17:41:55;95471.56;;;22.95;31.02
56600;BME280;51832;48.152;11.530;2023-02-21T17:46:56;95471.53;;;22.67;26.44
56600;BME280;51832;48.152;11.530;2023-02-21T17:51:57;95465.81;;;22.42;26.85
56600;BME280;51832;48.152;11.530;2023-02-21T17:56:57;95463.31;;;22.31;27.26
56600;BME280;51832;48.152;11.530;2023-02-21T18:01:57;95457.53;;;21.92;27.74
56600;BME280;51832;48.152;11.530;2023-02-21T18:06:58;95458.75;;;21.48;28.53
56600;BME280;51832;48.152;11.530;2023-02-21T18:11:59;95463.44;;;21.19;29.16
56600;BME280;51832;48.152;11.530;2023-02-21T18:17:00;95457.94;;;21.05;29.73
56600;BME280;51832;48.152;11.530;2023-02-21T18:22:01;95458.06;;;21.19;29.52
56600;BME280;51832;48.152;11.530;2023-02-21T18:27:04;95463.94;;;21.21;29.75
56600;BME280;51832;48.152;11.530;2023-02-21T18:32:04;95460.41;;;21.25;29.71
56600;BME280;51832;48.152;11.530;2023-02-21T18:37:05;95460.19;;;21.22;29.66
56600;BME280;51832;48.152;11.530;2023-02-21T18:42:07;95450.16;;;21.09;30.02
56600;BME280;51832;48.152;11.530;2023-02-21T18:47:07;95455.41;;;20.95;30.25
56600;BME280;51832;48.152;11.530;2023-02-21T18:52:09;95453.56;;;20.72;30.79
56600;BME280;51832;48.152;11.530;2023-02-21T18:57:10;95457.66;;;20.64;30.65
56600;BME280;51832;48.152;11.530;2023-02-21T19:02:13;95454.00;;;20.26;31.67
56600;BME280;51832;48.152;11.530;2023-02-21T19:07:14;95447.59;;;20.27;31.66
56600;BME280;51832;48.152;11.530;2023-02-21T19:12:18;95459.03;;;20.33;31.54
56600;BME280;51832;48.152;11.530;2023-02-21T19:17:19;95464.28;;;20.14;32.03
56600;BME280;51832;48.152;11.530;2023-02-21T19:22:19;95459.94;;;19.94;32.62
56600;BME280;51832;48.152;11.530;2023-02-21T19:27:20;95463.19;;;19.47;33.23
56600;BME280;51832;48.152;11.530;2023-02-21T19:32:20;95463.41;;;19.06;34.25
56600;BME280;51832;48.152;11.530;2023-02-21T19:37:21;95463.25;;;19.32;33.57
56600;BME280;51832;48.152;11.530;2023-02-21T19:42:23;95460.13;;;19.25;33.61
56600;BME280;51832;48.152;11.530;2023-02-21T19:47:23;95454.34;;;19.07;34.07
56600;BME280;51832;48.152;11.530;2023-02-21T19:52:24;95460.78;;;18.96;34.61
56600;BME280;51832;48.152;11.530;2023-02-21T19:57:24;95461.31;;;18.98;34.30
56600;BME280;51832;48.152;11.530;2023-02-21T20:02:24;95456.28;;;18.92;34.75
56600;BME280;51832;48.152;11.530;2023-02-21T20:07:25;95454.72;;;18.86;34.89
56600;BME280;51832;48.152;11.530;2023-02-21T20:12:25;95455.56;;;18.71;35.20
56600;BME280;51832;48.152;11.530;2023-02-21T20:17:26;95455.56;;;18.71;35.37
56600;BME280;51832;48.152;11.530;2023-02-21T20:22:26;95459.84;;;18.57;35.79
56600;BME280;51832;48.152;11.530;2023-02-21T20:27:32;95458.28;;;18.40;35.93
56600;BME280;51832;48.152;11.530;2023-02-21T20:32:33;95452.19;;;18.25;36.22
56600;BME280;51832;48.152;11.530;2023-02-21T20:37:34;95447.69;;;17.64;37.42
56600;BME280;51832;48.152;11.530;2023-02-21T20:42:34;95455.91;;;17.37;38.00
56600;BME280;51832;48.152;11.530;2023-02-21T20:47:35;95452.59;;;16.90;38.96
56600;BME280;51832;48.152;11.530;2023-02-21T20:52:36;95447.28;;;16.90;38.87
56600;BME280;51832;48.152;11.530;2023-02-21T20:57:36;95449.84;;;16.69;39.44
56600;BME280;51832;48.152;11.530;2023-02-21T21:02:37;95448.44;;;16.57;39.94
56600;BME280;51832;48.152;11.530;2023-02-21T21:07:39;95443.16;;;16.15;39.79
56600;BME280;51832;48.152;11.530;2023-02-21T21:12:41;95439.09;;;16.44;38.56
56600;BME280;51832;48.152;11.530;2023-02-21T21:17:42;95433.78;;;16.39;38.53
56600;BME280;51832;48.152;11.530;2023-02-21T21:22:43;95435.94;;;16.05;39.79
56600;BME280;51832;48.152;11.530;2023-02-21T21:27:44;95435.47;;;16.13;39.90
56600;BME280;51832;48.152;11.530;2023-02-21T21:32:44;95428.94;;;16.31;39.61
56600;BME280;51832;48.152;11.530;2023-02-21T21:37:46;95437.28;;;16.55;39.20
56600;BME280;51832;48.152;11.530;2023-02-21T21:42:48;95420.81;;;16.58;39.36
56600;BME280;51832;48.152;11.530;2023-02-21T21:47:53;95429.84;;;16.52;39.39
56600;BME280;51832;48.152;11.530;2023-02-21T21:52:55;95424.09;;;16.65;39.00
56600;BME280;51832;48.152;11.530;2023-02-21T21:57:57;95431.34;;;16.32;40.31
56600;BME280;51832;48.152;11.530;2023-02-21T22:02:59;95423.53;;;16.16;40.77
56600;BME280;51832;48.152;11.530;2023-02-21T22:08:01;95433.38;;;15.78;41.92
56600;BME280;51832;48.152;11.530;2023-02-21T22:13:01;95436.38;;;15.55;43.18
56600;BME280;51832;48.152;11.530;2023-02-21T22:18:10;95427.13;;;15.57;43.39
56600;BME280;51832;48.152;11.530;2023-02-21T22:23:10;95423.75;;;15.67;42.96
56600;BME280;51832;48.152;11.530;2023-02-21T22:28:12;95427.53;;;15.17;44.59
56600;BME280;51832;48.152;11.530;2023-02-21T22:33:16;95412.16;;;15.19;44.40
56600;BME280;51832;48.152;11.530;2023-02-21T22:38:17;95419.63;;;14.96;44.99
56600;BME280;51832;48.152;11.530;2023-02-21T22:43:18;95413.19;;;15.13;44.54
56600;BME280;51832;48.152;11.530;2023-02-21T22:48:19;95415.13;;;15.23;44.48
56600;BME280;51832;48.152;11.530;2023-02-21T22:53:20;95411.19;;;15.25;44.67
56600;BME280;51832;48.152;11.530;2023-02-21T22:58:20;95408.09;;;15.39;44.12
56600;BME280;51832;48.152;11.530;2023-02-21T23:03:21;95399.84;;;15.35;44.05
56600;BME280;51832;48.152;11.530;2023-02-21T23:08:22;95409.09;;;15.27;44.15
56600;BME280;51832;48.152;11.530;2023-02-21T23:13:23;95405.31;;;15.23;44.36
56600;BME280;51832;48.152;11.530;2023-02-21T23:18:24;95397.78;;;15.10;44.44
56600;BME280;51832;48.152;11.530;2023-02-21T23:23:27;95397.31;;;15.18;44.51
56600;BME280;51832;48.152;11.530;2023-02-21T23:28:28;95388.13;;;14.99;44.20
56600;BME280;51832;48.152;11.530;2023-02-21T23:33:29;95392.81;;;14.92;45.07
56600;BME280;51832;48.152;11.530;2023-02-21T23:38:32;95390.78;;;14.99;45.11
56600;BME280;51832;48.152;11.530;2023-02-21T23:43:37;95397.72;;;14.78;45.27
56600;BME280;51832;48.152;11.530;2023-02-21T23:48:39;95392.63;;;14.50;46.21
56600;BME280;51832;48.152;11.530;2023-02-21T23:53:40;95396.25;;;14.66;46.06
56600;BME280;51832;48.152;11.530;2023-02-21T23:58:43;95389.06;;;14.61;45.13
